sensor_id;sensor_type;location;lat;lon;timestamp;pressure;altitude;pressure_sealevel;temperature;humidity
47154;BME280;32907;41.412;2.164;2022-12-16T00:00:14;99001.44;;;20.21;43.10
47154;BME280;32907;41.412;2.164;2022-12-16T00:02:42;99022.56;;;20.24;43.00
47154;BME280;32907;41.412;2.164;2022-12-16T00:05:10;99005.16;;;20.17;43.07
47154;BME280;32907;41.412;2.164;2022-12-16T00:07:38;99034.38;;;20.28;42.86
47154;BME280;32907;41.412;2.164;2022-12-16T00:10:07;99023.22;;;20.21;43.06
47154;BME280;32907;41.412;2.164;2022-12-16T00:12:35;98926.03;;;19.63;42.87
47154;BME280;32907;41.412;2.164;2022-12-16T00:15:03;99041.44;;;20.29;43.21
47154;BME280;32907;41.412;2.164;2022-12-16T00:17:31;99012.84;;;20.15;43.03
47154;BME280;32907;41.412;2.164;2022-12-16T00:19:59;98968.03;;;19.82;42.75
47154;BME280;32907;41.412;2.164;2022-12-16T00:22:29;99001.22;;;20.05;43.31
47154;BME280;32907;41.412;2.164;2022-12-16T00:24:57;98995.44;;;20.07;43.39
47154;BME280;32907;41.412;2.164;2022-12-16T00:27:25;98951.25;;;19.72;43.26
47154;BME280;32907;41.412;2.164;2022-12-16T00:29:53;99017.78;;;20.12;43.43
47154;BME280;32907;41.412;2.164;2022-12-16T00:32:21;99008.25;;;20.06;43.33
47154;BME280;32907;41.412;2.164;2022-12-16T00:34:49;99029.75;;;20.20;43.18
47154;BME280;32907;41.412;2.164;2022-12-16T00:37:18;98989.56;;;19.96;43.68
47154;BME280;32907;41.412;2.164;2022-12-16T00:39:46;99026.25;;;20.20;43.65
47154;BME280;32907;41.412;2.164;2022-12-16T00:42:13;99017.50;;;20.14;43.60
47154;BME280;32907;41.412;2.164;2022-12-16T00:44:41;98988.63;;;19.92;43.54
47154;BME280;32907;41.412;2.164;2022-12-16T00:47:09;99025.00;;;20.17;43.32
47154;BME280;32907;41.412;2.164;2022-12-16T00:49:36;99038.94;;;20.16;43.28
47154;BME280;32907;41.412;2.164;2022-12-16T00:52:04;99002.69;;;19.94;43.25
47154;BME280;32907;41.412;2.164;2022-12-16T00:54:32;99024.25;;;20.08;43.58
47154;BME280;32907;41.412;2.164;2022-12-16T00:57:00;98977.97;;;19.78;43.38
47154;BME280;32907;41.412;2.164;2022-12-16T00:59:27;99020.78;;;19.99;43.43
47154;BME280;32907;41.412;2.164;2022-12-16T01:01:55;99019.00;;;19.94;43.38
47154;BME280;32907;41.412;2.164;2022-12-16T01:04:24;99003.19;;;19.88;43.51
47154;BME280;32907;41.412;2.164;2022-12-16T01:06:53;99038.81;;;20.03;43.42
47154;BME280;32907;41.412;2.164;2022-12-16T01:09:21;99034.53;;;19.94;43.56
47154;BME280;32907;41.412;2.164;2022-12-16T01:11:50;99034.97;;;20.04;43.60
47154;BME280;32907;41.412;2.164;2022-12-16T01:14:18;98996.88;;;19.75;43.39
47154;BME280;32907;41.412;2.164;2022-12-16T01:16:45;99047.31;;;20.02;43.37
47154;BME280;32907;41.412;2.164;2022-12-16T01:19:13;99015.41;;;19.81;43.65
47154;BME280;32907;41.412;2.164;2022-12-16T01:21:41;99015.91;;;19.75;43.48
47154;BME280;32907;41.412;2.164;2022-12-16T01:24:10;99000.09;;;19.68;43.83
47154;BME280;32907;41.412;2.164;2022-12-16T01:26:38;99055.00;;;20.00;43.43
47154;BME280;32907;41.412;2.164;2022-12-16T01:29:05;99041.94;;;19.84;43.60
47154;BME280;32907;41.412;2.164;2022-12-16T01:31:33;99067.19;;;19.94;43.90
47154;BME280;32907;41.412;2.164;2022-12-16T01:34:01;99058.22;;;19.93;43.81
47154;BME280;32907;41.412;2.164;2022-12-16T01:36:29;99064.13;;;19.95;43.60
47154;BME280;32907;41.412;2.164;2022-12-16T01:38:57;99013.84;;;19.54;43.48
47154;BME280;32907;41.412;2.164;2022-12-16T01:41:26;99089.75;;;19.94;43.62
47154;BME280;32907;41.412;2.164;2022-12-16T01:44:16;99050.25;;;19.79;43.48
47154;BME280;32907;41.412;2.164;2022-12-16T01:46:53;99078.06;;;19.94;43.51
47154;BME280;32907;41.412;2.164;2022-12-16T01:49:47;99089.59;;;19.91;43.67
47154;BME280;32907;41.412;2.164;2022-12-16T01:52:20;99051.09;;;19.71;43.61
47154;BME280;32907;41.412;2.164;2022-12-16T01:54:56;99060.81;;;19.90;43.65
47154;BME280;32907;41.412;2.164;2022-12-16T01:57:35;99049.47;;;19.79;44.13
47154;BME280;32907;41.412;2.164;2022-12-16T02:00:05;99055.25;;;19.77;44.00
47154;BME280;32907;41.412;2.164;2022-12-16T02:02:41;99094.56;;;19.89;43.87
47154;BME280;32907;41.412;2.164;2022-12-16T02:05:13;99080.50;;;19.87;43.66
47154;BME280;32907;41.412;2.164;2022-12-16T02:08:10;99088.50;;;19.83;43.64
47154;BME280;32907;41.412;2.164;2022-12-16T02:13:30;99117.13;;;19.80;43.78
47154;BME280;32907;41.412;2.164;2022-12-16T02:19:46;99129.47;;;19.78;43.22
47154;BME280;32907;41.412;2.164;2022-12-16T02:22:44;99141.16;;;19.78;43.22
47154;BME280;32907;41.412;2.164;2022-12-16T02:36:25;99157.28;;;19.92;43.83
47154;BME280;32907;41.412;2.164;2022-12-16T02:39:07;99130.13;;;19.75;44.00
47154;BME280;32907;41.412;2.164;2022-12-16T02:47:20;99142.75;;;19.79;43.97
47154;BME280;32907;41.412;2.164;2022-12-16T02:49:50;99149.78;;;19.80;43.99
47154;BME280;32907;41.412;2.164;2022-12-16T02:52:30;99171.03;;;19.96;43.95
47154;BME280;32907;41.412;2.164;2022-12-16T02:55:05;99091.59;;;19.38;43.86
47154;BME280;32907;41.412;2.164;2022-12-16T02:57:54;99115.91;;;19.52;43.74
47154;BME280;32907;41.412;2.164;2022-12-16T03:00:32;99182.72;;;19.88;44.12
47154;BME280;32907;41.412;2.164;2022-12-16T03:03:13;99193.47;;;19.84;44.43
47154;BME280;32907;41.412;2.164;2022-12-16T03:05:45;99193.31;;;19.80;44.38
47154;BME280;32907;41.412;2.164;2022-12-16T03:08:21;99169.34;;;19.65;44.41
47154;BME280;32907;41.412;2.164;2022-12-16T03:10:56;99131.75;;;19.41;44.35
47154;BME280;32907;41.412;2.164;2022-12-16T03:13:29;99154.44;;;19.54;44.50
47154;BME280;32907;41.412;2.164;2022-12-16T03:16:00;99200.84;;;19.83;44.22
47154;BME280;32907;41.412;2.164;2022-12-16T03:18:29;99177.50;;;19.65;44.10
47154;BME280;32907;41.412;2.164;2022-12-16T03:21:05;99165.31;;;19.54;44.54
47154;BME280;32907;41.412;2.164;2022-12-16T03:26:12;99202.59;;;19.79;44.28
47154;BME280;32907;41.412;2.164;2022-12-16T03:28:51;99200.53;;;19.76;44.61
47154;BME280;32907;41.412;2.164;2022-12-16T03:31:42;99207.56;;;19.77;44.45
47154;BME280;32907;41.412;2.164;2022-12-16T03:34:18;99215.72;;;19.77;44.59
47154;BME280;32907;41.412;2.164;2022-12-16T03:36:50;99208.81;;;19.80;44.61
47154;BME280;32907;41.412;2.164;2022-12-16T03:39:20;99210.41;;;19.81;45.13
47154;BME280;32907;41.412;2.164;2022-12-16T03:41:51;99210.25;;;19.86;44.51
47154;BME280;32907;41.412;2.164;2022-12-16T03:44:22;99169.03;;;19.58;44.68
47154;BME280;32907;41.412;2.164;2022-12-16T03:46:52;99192.84;;;19.70;44.24
47154;BME280;32907;41.412;2.164;2022-12-16T03:49:21;99216.34;;;19.83;44.51
47154;BME280;32907;41.412;2.164;2022-12-16T03:51:49;99163.84;;;19.48;44.61
47154;BME280;32907;41.412;2.164;2022-12-16T03:54:17;99216.50;;;19.78;45.15
47154;BME280;32907;41.412;2.164;2022-12-16T03:56:46;99203.25;;;19.76;45.21
47154;BME280;32907;41.412;2.164;2022-12-16T03:59:14;99169.47;;;19.51;45.23
47154;BME280;32907;41.412;2.164;2022-12-16T04:01:41;99215.22;;;19.84;45.20
47154;BME280;32907;41.412;2.164;2022-12-16T04:04:10;99202.44;;;19.67;45.21
47154;BME280;32907;41.412;2.164;2022-12-16T04:06:38;99223.72;;;19.82;44.65
47154;BME280;32907;41.412;2.164;2022-12-16T04:09:06;99223.53;;;19.79;45.14
47154;BME280;32907;41.412;2.164;2022-12-16T04:11:33;99177.19;;;19.58;45.14
47154;BME280;32907;41.412;2.164;2022-12-16T04:14:20;99221.63;;;19.79;45.06
47154;BME280;32907;41.412;2.164;2022-12-16T04:17:11;99220.50;;;19.80;44.99
47154;BME280;32907;41.412;2.164;2022-12-16T04:19:58;99221.94;;;19.78;45.42
47154;BME280;32907;41.412;2.164;2022-12-16T04:22:44;99174.72;;;19.48;45.25
47154;BME280;32907;41.412;2.164;2022-12-16T04:25:33;99195.53;;;19.52;45.49
47154;BME280;32907;41.412;2.164;2022-12-16T04:28:03;99220.03;;;19.70;45.22
47154;BME280;32907;41.412;2.164;2022-12-16T04:30:32;99232.38;;;19.67;45.30
47154;BME280;32907;41.412;2.164;2022-12-16T04:33:10;99224.69;;;19.69;45.18
47154;BME280;32907;41.412;2.164;2022-12-16T04:35:59;99242.59;;;19.70;44.90
47154;BME280;32907;41.412;2.164;2022-12-16T04:38:46;99220.00;;;19.52;44.91
47154;BME280;32907;41.412;2.164;2022-12-16T04:41:32;99247.56;;;19.60;45.36
47154;BME280;32907;41.412;2.164;2022-12-16T04:44:19;99204.63;;;19.39;45.43
47154;BME280;32907;41.412;2.164;2022-12-16T04:47:05;99231.03;;;19.56;45.28
47154;BME280;32907;41.412;2.164;2022-12-16T04:49:52;99189.09;;;19.22;45.27
47154;BME280;32907;41.412;2.164;2022-12-16T04:52:39;99236.78;;;19.54;45.53
47154;BME280;32907;41.412;2.164;2022-12-16T04:55:25;99255.03;;;19.54;45.53
47154;BME280;32907;41.412;2.164;2022-12-16T04:58:11;99254.88;;;19.50;45.25
47154;BME280;32907;41.412;2.164;2022-12-16T05:00:58;99267.72;;;19.59;45.21
47154;BME280;32907;41.412;2.164;2022-12-16T05:03:46;99221.09;;;19.25;45.44
47154;BME280;32907;41.412;2.164;2022-12-16T05:06:32;99285.63;;;19.60;45.27
47154;BME280;32907;41.412;2.164;2022-12-16T05:09:18;99265.09;;;19.53;45.24
47154;BME280;32907;41.412;2.164;2022-12-16T05:12:05;99267.34;;;19.51;45.12
47154;BME280;32907;41.412;2.164;2022-12-16T05:14:51;99280.81;;;19.56;45.37
47154;BME280;32907;41.412;2.164;2022-12-16T05:17:54;99283.97;;;19.50;45.08
47154;BME280;32907;41.412;2.164;2022-12-16T05:20:40;99262.69;;;19.35;45.05
47154;BME280;32907;41.412;2.164;2022-12-16T05:23:27;99290.38;;;19.45;45.24
47154;BME280;32907;41.412;2.164;2022-12-16T05:26:13;99277.88;;;19.36;45.46
47154;BME280;32907;41.412;2.164;2022-12-16T05:29:00;99253.38;;;19.18;45.40
47154;BME280;32907;41.412;2.164;2022-12-16T05:31:57;99207.41;;;18.82;45.14
47154;BME280;32907;41.412;2.164;2022-12-16T05:34:43;99270.50;;;19.27;45.64
47154;BME280;32907;41.412;2.164;2022-12-16T05:37:32;99262.66;;;19.17;45.38
47154;BME280;32907;41.412;2.164;2022-12-16T05:40:18;99305.06;;;19.44;45.21
47154;BME280;32907;41.412;2.164;2022-12-16T05:43:05;99263.13;;;19.19;45.70
47154;BME280;32907;41.412;2.164;2022-12-16T05:45:51;99279.59;;;19.23;45.34
47154;BME280;32907;41.412;2.164;2022-12-16T05:48:42;99310.31;;;19.41;45.62
47154;BME280;32907;41.412;2.164;2022-12-16T05:51:28;99300.75;;;19.35;45.32
47154;BME280;32907;41.412;2.164;2022-12-16T05:54:14;99278.31;;;19.20;45.33
47154;BME280;32907;41.412;2.164;2022-12-16T05:57:00;99284.88;;;19.19;45.47
47154;BME280;32907;41.412;2.164;2022-12-16T05:59:46;99320.88;;;19.34;45.78
47154;BME280;32907;41.412;2.164;2022-12-16T06:02:38;99330.97;;;19.42;46.17
47154;BME280;32907;41.412;2.164;2022-12-16T06:05:24;99285.81;;;19.15;46.24
47154;BME280;32907;41.412;2.164;2022-12-16T06:08:10;99327.59;;;19.36;46.73
47154;BME280;32907;41.412;2.164;2022-12-16T06:10:57;99342.69;;;19.51;46.28
47154;BME280;32907;41.412;2.164;2022-12-16T06:13:43;99344.44;;;19.55;46.47
47154;BME280;32907;41.412;2.164;2022-12-16T06:16:29;99362.56;;;19.60;46.83
47154;BME280;32907;41.412;2.164;2022-12-16T06:19:23;99342.69;;;19.51;46.42
47154;BME280;32907;41.412;2.164;2022-12-16T06:22:10;99364.03;;;19.66;46.02
47154;BME280;32907;41.412;2.164;2022-12-16T06:24:56;99353.75;;;19.63;46.42
47154;BME280;32907;41.412;2.164;2022-12-16T06:27:42;99331.81;;;19.51;46.31
47154;BME280;32907;41.412;2.164;2022-12-16T06:30:34;99339.78;;;19.56;46.42
47154;BME280;32907;41.412;2.164;2022-12-16T06:33:22;99346.09;;;19.65;46.05
47154;BME280;32907;41.412;2.164;2022-12-16T06:36:09;99358.09;;;19.73;46.02
47154;BME280;32907;41.412;2.164;2022-12-16T06:38:55;99335.00;;;19.53;45.43
47154;BME280;32907;41.412;2.164;2022-12-16T06:41:41;99324.44;;;19.51;45.71
47154;BME280;32907;41.412;2.164;2022-12-16T06:44:28;99370.75;;;19.86;46.23
47154;BME280;32907;41.412;2.164;2022-12-16T06:47:14;99295.94;;;19.40;46.33
47154;BME280;32907;41.412;2.164;2022-12-16T06:50:01;99332.81;;;19.64;45.93
47154;BME280;32907;41.412;2.164;2022-12-16T06:52:47;99366.44;;;19.85;45.96
47154;BME280;32907;41.412;2.164;2022-12-16T06:55:33;99366.44;;;19.76;46.10
47154;BME280;32907;41.412;2.164;2022-12-16T06:58:34;99319.94;;;19.47;45.76
47154;BME280;32907;41.412;2.164;2022-12-16T07:01:20;99383.72;;;19.80;45.43
47154;BME280;32907;41.412;2.164;2022-12-16T07:04:07;99371.69;;;19.73;45.38
47154;BME280;32907;41.412;2.164;2022-12-16T07:06:53;99349.41;;;19.53;45.14
47154;BME280;32907;41.412;2.164;2022-12-16T07:09:39;99361.53;;;19.47;44.97
47154;BME280;32907;41.412;2.164;2022-12-16T07:12:25;99405.28;;;19.68;44.81
47154;BME280;32907;41.412;2.164;2022-12-16T07:15:12;99412.69;;;19.76;45.07
47154;BME280;32907;41.412;2.164;2022-12-16T07:17:59;99409.63;;;19.69;44.77
47154;BME280;32907;41.412;2.164;2022-12-16T07:20:45;99407.03;;;19.64;44.61
47154;BME280;32907;41.412;2.164;2022-12-16T07:23:31;99432.50;;;19.77;44.67
47154;BME280;32907;41.412;2.164;2022-12-16T07:26:18;99434.13;;;19.78;44.62
47154;BME280;32907;41.412;2.164;2022-12-16T07:29:05;99390.41;;;19.57;44.74
47154;BME280;32907;41.412;2.164;2022-12-16T07:31:53;99408.00;;;19.68;44.58
47154;BME280;32907;41.412;2.164;2022-12-16T07:34:40;99432.69;;;19.80;44.90
47154;BME280;32907;41.412;2.164;2022-12-16T07:37:26;99440.34;;;19.78;45.30
47154;BME280;32907;41.412;2.164;2022-12-16T07:40:12;99423.34;;;19.64;45.37
47154;BME280;32907;41.412;2.164;2022-12-16T07:42:59;99453.34;;;19.81;45.52
47154;BME280;32907;41.412;2.164;2022-12-16T07:45:45;99428.66;;;19.69;45.69
47154;BME280;32907;41.412;2.164;2022-12-16T07:48:32;99408.31;;;19.58;45.25
47154;BME280;32907;41.412;2.164;2022-12-16T07:51:19;99408.31;;;19.58;45.01
47154;BME280;32907;41.412;2.164;2022-12-16T07:54:06;99421.63;;;19.68;44.79
47154;BME280;32907;41.412;2.164;2022-12-16T07:56:52;99409.59;;;19.61;44.91
47154;BME280;32907;41.412;2.164;2022-12-16T07:59:39;99450.63;;;19.81;44.74
47154;BME280;32907;41.412;2.164;2022-12-16T08:02:25;99460.41;;;19.91;44.68
47154;BME280;32907;41.412;2.164;2022-12-16T08:05:11;99462.13;;;19.87;44.65
47154;BME280;32907;41.412;2.164;2022-12-16T08:07:58;99447.91;;;19.81;44.22
47154;BME280;32907;41.412;2.164;2022-12-16T08:10:44;99448.03;;;19.76;44.20
47154;BME280;32907;41.412;2.164;2022-12-16T08:13:30;99446.44;;;19.75;44.53
47154;BME280;32907;41.412;2.164;2022-12-16T08:16:16;99451.53;;;19.68;44.81
47154;BME280;32907;41.412;2.164;2022-12-16T08:19:03;99448.13;;;19.63;44.83
47154;BME280;32907;41.412;2.164;2022-12-16T08:21:49;99474.59;;;19.79;44.99
47154;BME280;32907;41.412;2.164;2022-12-16T08:24:35;99464.00;;;19.69;45.03
47154;BME280;32907;41.412;2.164;2022-12-16T08:27:22;99473.97;;;19.82;44.97
47154;BME280;32907;41.412;2.164;2022-12-16T08:30:12;99460.97;;;19.71;45.03
47154;BME280;32907;41.412;2.164;2022-12-16T08:33:01;99512.59;;;20.02;44.63
47154;BME280;32907;41.412;2.164;2022-12-16T08:35:47;99480.19;;;19.74;44.08
47154;BME280;32907;41.412;2.164;2022-12-16T08:38:34;99507.75;;;19.81;44.69
47154;BME280;32907;41.412;2.164;2022-12-16T08:41:22;99512.56;;;19.84;44.49
47154;BME280;32907;41.412;2.164;2022-12-16T08:44:08;99535.16;;;19.94;44.69
47154;BME280;32907;41.412;2.164;2022-12-16T08:46:54;99525.88;;;19.95;45.48
47154;BME280;32907;41.412;2.164;2022-12-16T08:49:40;99524.25;;;19.94;45.61
47154;BME280;32907;41.412;2.164;2022-12-16T08:52:30;99518.16;;;19.88;45.11
47154;BME280;32907;41.412;2.164;2022-12-16T08:55:17;99470.94;;;19.53;45.01
47154;BME280;32907;41.412;2.164;2022-12-16T08:58:03;99541.72;;;19.93;44.96
47154;BME280;32907;41.412;2.164;2022-12-16T09:00:49;99536.56;;;19.82;44.39
47154;BME280;32907;41.412;2.164;2022-12-16T09:03:36;99534.78;;;19.87;44.58
47154;BME280;32907;41.412;2.164;2022-12-16T09:06:23;99567.50;;;20.04;45.35
47154;BME280;32907;41.412;2.164;2022-12-16T09:09:09;99580.31;;;20.03;45.21
47154;BME280;32907;41.412;2.164;2022-12-16T09:11:56;99563.47;;;19.93;45.11
47154;BME280;32907;41.412;2.164;2022-12-16T09:14:42;99572.97;;;20.04;44.88
47154;BME280;32907;41.412;2.164;2022-12-16T09:17:28;99585.44;;;20.05;45.70
47154;BME280;32907;41.412;2.164;2022-12-16T09:20:15;99585.75;;;20.03;44.84
47154;BME280;32907;41.412;2.164;2022-12-16T09:23:02;99533.75;;;19.65;44.70
47154;BME280;32907;41.412;2.164;2022-12-16T09:25:49;99577.41;;;19.91;44.79
47154;BME280;32907;41.412;2.164;2022-12-16T09:28:36;99569.03;;;19.88;44.58
47154;BME280;32907;41.412;2.164;2022-12-16T09:31:22;99594.59;;;20.09;44.70
47154;BME280;32907;41.412;2.164;2022-12-16T09:34:23;99601.16;;;20.08;44.21
47154;BME280;32907;41.412;2.164;2022-12-16T09:37:10;99582.53;;;19.93;44.15
47154;BME280;32907;41.412;2.164;2022-12-16T09:39:58;99610.44;;;20.07;44.51
47154;BME280;32907;41.412;2.164;2022-12-16T09:45:48;99589.91;;;20.01;44.59
47154;BME280;32907;41.412;2.164;2022-12-16T09:49:04;99608.22;;;20.09;44.61
47154;BME280;32907;41.412;2.164;2022-12-16T09:51:55;99593.88;;;19.95;44.42
47154;BME280;32907;41.412;2.164;2022-12-16T09:54:47;99588.59;;;19.90;44.16
47154;BME280;32907;41.412;2.164;2022-12-16T09:57:37;99591.94;;;19.87;44.40
47154;BME280;32907;41.412;2.164;2022-12-16T10:00:26;99580.69;;;19.79;44.31
47154;BME280;32907;41.412;2.164;2022-12-16T10:03:28;99605.41;;;19.92;44.09
47154;BME280;32907;41.412;2.164;2022-12-16T10:06:25;99632.22;;;20.07;44.02
47154;BME280;32907;41.412;2.164;2022-12-16T10:13:13;99629.63;;;20.02;43.78
47154;BME280;32907;41.412;2.164;2022-12-16T10:22:36;99640.69;;;20.05;44.37
47154;BME280;32907;41.412;2.164;2022-12-16T10:25:48;99626.47;;;20.08;43.75
47154;BME280;32907;41.412;2.164;2022-12-16T10:28:59;99604.94;;;19.90;44.24
47154;BME280;32907;41.412;2.164;2022-12-16T10:31:51;99629.84;;;20.14;44.55
47154;BME280;32907;41.412;2.164;2022-12-16T10:34:39;99594.38;;;19.97;44.14
47154;BME280;32907;41.412;2.164;2022-12-16T10:37:32;99595.00;;;19.94;43.76
47154;BME280;32907;41.412;2.164;2022-12-16T10:40:24;99619.25;;;20.12;44.34
47154;BME280;32907;41.412;2.164;2022-12-16T10:43:38;99580.91;;;19.92;44.17
47154;BME280;32907;41.412;2.164;2022-12-16T10:46:32;99625.25;;;20.23;43.22
47154;BME280;32907;41.412;2.164;2022-12-16T10:49:20;99591.97;;;19.95;44.60
47154;BME280;32907;41.412;2.164;2022-12-16T10:52:11;99598.25;;;20.04;44.82
47154;BME280;32907;41.412;2.164;2022-12-16T10:55:15;99626.84;;;20.24;43.84
47154;BME280;32907;41.412;2.164;2022-12-16T10:58:28;99624.75;;;20.21;43.93
47154;BME280;32907;41.412;2.164;2022-12-16T11:01:26;99609.16;;;20.13;43.68
47154;BME280;32907;41.412;2.164;2022-12-16T11:13:28;99612.72;;;20.14;44.02
47154;BME280;32907;41.412;2.164;2022-12-16T11:16:23;99600.97;;;20.04;44.07
47154;BME280;32907;41.412;2.164;2022-12-16T11:19:25;99584.75;;;19.91;43.14
47154;BME280;32907;41.412;2.164;2022-12-16T11:22:21;99587.81;;;19.89;43.38
47154;BME280;32907;41.412;2.164;2022-12-16T11:25:17;99608.03;;;20.05;43.09
47154;BME280;32907;41.412;2.164;2022-12-16T11:28:16;99569.63;;;19.76;43.11
47154;BME280;32907;41.412;2.164;2022-12-16T11:31:06;99596.16;;;20.01;43.68
47154;BME280;32907;41.412;2.164;2022-12-16T11:33:53;99576.03;;;19.80;43.32
47154;BME280;32907;41.412;2.164;2022-12-16T11:36:41;99592.16;;;19.99;43.26
47154;BME280;32907;41.412;2.164;2022-12-16T11:39:30;99601.59;;;20.01;42.89
47154;BME280;32907;41.412;2.164;2022-12-16T11:42:21;99612.03;;;20.08;43.00
47154;BME280;32907;41.412;2.164;2022-12-16T11:45:14;99620.22;;;20.08;43.60
47154;BME280;32907;41.412;2.164;2022-12-16T11:48:17;99603.88;;;20.08;43.01
47154;BME280;32907;41.412;2.164;2022-12-16T11:51:10;99569.47;;;19.81;42.82
47154;BME280;32907;41.412;2.164;2022-12-16T11:54:13;99598.75;;;20.06;42.79
47154;BME280;32907;41.412;2.164;2022-12-16T11:57:01;99603.69;;;20.04;43.03
47154;BME280;32907;41.412;2.164;2022-12-16T12:00:00;99585.56;;;19.91;42.47
47154;BME280;32907;41.412;2.164;2022-12-16T12:03:08;99607.38;;;20.00;42.06
47154;BME280;32907;41.412;2.164;2022-12-16T12:09:15;99549.56;;;19.63;42.81
47154;BME280;32907;41.412;2.164;2022-12-16T12:12:14;99605.63;;;20.04;42.57
47154;BME280;32907;41.412;2.164;2022-12-16T12:18:11;99608.06;;;20.14;42.47
47154;BME280;32907;41.412;2.164;2022-12-16T12:21:17;99594.44;;;20.05;42.21
47154;BME280;32907;41.412;2.164;2022-12-16T12:27:30;99599.56;;;20.07;42.09
47154;BME280;32907;41.412;2.164;2022-12-16T12:30:20;99605.16;;;20.10;42.87
47154;BME280;32907;41.412;2.164;2022-12-16T12:40:13;99599.00;;;20.36;47.74
47154;BME280;32907;41.412;2.164;2022-12-16T12:43:05;99596.84;;;20.47;44.77
47154;BME280;32907;41.412;2.164;2022-12-16T12:46:07;99595.09;;;20.51;43.40
47154;BME280;32907;41.412;2.164;2022-12-16T12:52:17;99578.25;;;20.49;43.09
47154;BME280;32907;41.412;2.164;2022-12-16T12:58:02;99573.09;;;20.38;41.99
47154;BME280;32907;41.412;2.164;2022-12-16T13:00:52;99563.94;;;20.34;42.23
47154;BME280;32907;41.412;2.164;2022-12-16T13:03:57;99562.69;;;20.40;41.78
47154;BME280;32907;41.412;2.164;2022-12-16T13:06:45;99572.44;;;20.42;42.09
47154;BME280;32907;41.412;2.164;2022-12-16T13:09:33;99562.19;;;20.38;42.46
47154;BME280;32907;41.412;2.164;2022-12-16T13:20:56;99497.72;;;19.99;41.32
47154;BME280;32907;41.412;2.164;2022-12-16T13:23:50;99572.44;;;20.42;41.60
47154;BME280;32907;41.412;2.164;2022-12-16T13:27:00;99597.19;;;20.54;40.80
47154;BME280;32907;41.412;2.164;2022-12-16T13:36:04;99545.78;;;20.12;41.06
47154;BME280;32907;41.412;2.164;2022-12-16T13:38:52;99602.28;;;20.47;40.74
47154;BME280;32907;41.412;2.164;2022-12-16T13:50:49;99588.69;;;20.55;41.02
47154;BME280;32907;41.412;2.164;2022-12-16T13:53:50;99586.13;;;20.50;41.00
47154;BME280;32907;41.412;2.164;2022-12-16T13:56:47;99596.53;;;20.57;41.95
47154;BME280;32907;41.412;2.164;2022-12-16T13:59:36;99578.41;;;20.44;40.92
47154;BME280;32907;41.412;2.164;2022-12-16T14:02:32;99607.59;;;20.60;40.24
47154;BME280;32907;41.412;2.164;2022-12-16T14:05:35;99590.59;;;20.46;39.45
47154;BME280;32907;41.412;2.164;2022-12-16T14:08:23;99614.50;;;20.58;40.15
47154;BME280;32907;41.412;2.164;2022-12-16T14:11:18;99578.19;;;20.31;39.85
47154;BME280;32907;41.412;2.164;2022-12-16T14:17:55;99610.00;;;20.53;39.69
47154;BME280;32907;41.412;2.164;2022-12-16T14:20:51;99629.56;;;20.64;38.76
47154;BME280;32907;41.412;2.164;2022-12-16T14:23:44;99618.97;;;20.54;39.49
47154;BME280;32907;41.412;2.164;2022-12-16T14:26:35;99624.38;;;20.45;39.68
47154;BME280;32907;41.412;2.164;2022-12-16T14:29:27;99585.03;;;20.20;39.21
47154;BME280;32907;41.412;2.164;2022-12-16T14:32:30;99635.47;;;20.57;39.21
47154;BME280;32907;41.412;2.164;2022-12-16T14:35:23;99583.41;;;20.19;39.82
47154;BME280;32907;41.412;2.164;2022-12-16T14:38:28;99634.69;;;20.57;40.41
47154;BME280;32907;41.412;2.164;2022-12-16T14:41:23;99640.28;;;20.60;40.11
47154;BME280;32907;41.412;2.164;2022-12-16T14:44:29;99649.75;;;20.63;40.18
47154;BME280;32907;41.412;2.164;2022-12-16T14:47:18;99639.66;;;20.55;39.94
47154;BME280;32907;41.412;2.164;2022-12-16T14:50:20;99657.44;;;20.61;39.71
47154;BME280;32907;41.412;2.164;2022-12-16T14:53:16;99652.63;;;20.58;39.95
47154;BME280;32907;41.412;2.164;2022-12-16T14:56:20;99674.75;;;20.65;40.04
47154;BME280;32907;41.412;2.164;2022-12-16T15:01:56;99641.97;;;20.39;39.80
47154;BME280;32907;41.412;2.164;2022-12-16T15:04:45;99678.75;;;20.59;39.45
47154;BME280;32907;41.412;2.164;2022-12-16T15:07:35;99676.47;;;20.52;39.40
47154;BME280;32907;41.412;2.164;2022-12-16T15:10:25;99620.41;;;20.20;39.97
47154;BME280;32907;41.412;2.164;2022-12-16T15:13:16;99678.91;;;20.54;39.99
47154;BME280;32907;41.412;2.164;2022-12-16T15:16:04;99640.63;;;20.28;40.81
47154;BME280;32907;41.412;2.164;2022-12-16T15:18:57;99696.03;;;20.54;40.30
47154;BME280;32907;41.412;2.164;2022-12-16T15:21:46;99696.69;;;20.60;40.06
47154;BME280;32907;41.412;2.164;2022-12-16T15:24:36;99700.19;;;20.60;40.64
47154;BME280;32907;41.412;2.164;2022-12-16T15:27:26;99693.59;;;20.53;40.21
47154;BME280;32907;41.412;2.164;2022-12-16T15:30:40;99628.34;;;19.99;40.41
47154;BME280;32907;41.412;2.164;2022-12-16T15:33:30;99677.97;;;20.36;40.63
47154;BME280;32907;41.412;2.164;2022-12-16T15:36:24;99718.97;;;20.62;40.91
47154;BME280;32907;41.412;2.164;2022-12-16T15:39:21;99711.91;;;20.61;40.64
47154;BME280;32907;41.412;2.164;2022-12-16T15:42:28;99731.59;;;20.58;40.95
47154;BME280;32907;41.412;2.164;2022-12-16T15:45:29;99710.44;;;20.46;41.17
47154;BME280;32907;41.412;2.164;2022-12-16T15:51:31;99734.81;;;20.60;41.18
47154;BME280;32907;41.412;2.164;2022-12-16T15:54:28;99731.13;;;20.56;41.61
47154;BME280;32907;41.412;2.164;2022-12-16T15:57:29;99740.78;;;20.62;41.97
47154;BME280;32907;41.412;2.164;2022-12-16T16:00:20;99710.50;;;20.41;41.63
47154;BME280;32907;41.412;2.164;2022-12-16T16:03:25;99750.22;;;20.64;41.57
47154;BME280;32907;41.412;2.164;2022-12-16T16:06:21;99748.28;;;20.56;41.88
47154;BME280;32907;41.412;2.164;2022-12-16T16:09:22;99763.38;;;20.62;41.92
47154;BME280;32907;41.412;2.164;2022-12-16T16:12:11;99733.63;;;20.44;42.46
47154;BME280;32907;41.412;2.164;2022-12-16T16:14:57;99767.53;;;20.68;42.60
47154;BME280;32907;41.412;2.164;2022-12-16T16:17:46;99765.94;;;20.67;42.59
47154;BME280;32907;41.412;2.164;2022-12-16T16:20:33;99757.25;;;20.57;42.10